Search for airport 
image banner adimage banner adimage banner ad
image banner ad

3CN2 - Santa Barbara Cottage Hospital

Located in Santa Barbara, United States

ICAO - 3CN2, IATA -

Data provided by Airmate  

General information

Coordinates: N34°25'47" W119°43'27"
Elevation is 201 feet MSL.
 
View others Airports in California

Operational data

Special qualification required
Current time UTC:
Current local time:
Weather at : KSBA - Santa Barbara Muni ( 11 km )
METAR: KSBA 231453Z 09006KT 6SM BR OVC004 16/14 A2993 RMK AO2 SLP135 T01560139 53005 $
TAF: KSBA 231144Z 2312/2412 06006KT 4SM BR OVC004 FM231600 VRB03KT 6SM BR OVC007 FM231800 16007KT P6SM SKC FM232100 24009KT P6SM SKC FM240200 VRB03KT P6SM SKC FM240900 VRB03KT 6SM BR OVC007
View NOTAMs / SUP AIP / TFR affecting this airport [VIEW]
Communications frequencies: [VIEW]

Runways:

Airport contact information

Address: Santa Barbara United States

Satellite view of 3CN2